<?xml version="1.0" encoding="UTF-8"?><gpx xmlns="http://www.topografix.com/GPX/1/1"  creator="TraceDeTrail http://www.tracedetrail.fr" version="1.1" xmlns:xsi="http://www.w3.org/2001/XMLSchema-instance" xsi:schemaLocation="http://www.topografix.com/GPX/1/1 http://www.topografix.com/GPX/1/1/gpx.xsd "><metadata><name>Boucle du plateau de l'Arselle</name><link href="http://tracedetrail.fr/fr/trace/trace/119974"><text>methode de calcul : astergdem </text></link></metadata><trk><name>Boucle du plateau de l'Arselle sur TraceDeTrail.fr</name><trkseg><trkpt lat="45.09942" lon="5.87784"><ele>1633</ele><time>2000-01-01T01:40:39.000Z</time></trkpt><trkpt lat="45.09921" lon="5.87741"><ele>1634</ele><time>2000-01-01T01:40:49.000Z</time></trkpt><trkpt lat="45.09903" lon="5.87707"><ele>1635</ele><time>2000-01-01T01:40:59.000Z</time></trkpt><trkpt lat="45.09884" lon="5.87685"><ele>1632</ele><time>2000-01-01T01:41:09.000Z</time></trkpt><trkpt lat="45.09877" lon="5.87642"><ele>1630</ele><time>2000-01-01T01:41:19.000Z</time></trkpt><trkpt lat="45.09871" lon="5.87608"><ele>1629</ele><time>2000-01-01T01:41:29.000Z</time></trkpt><trkpt lat="45.09865" lon="5.87569"><ele>1630</ele><time>2000-01-01T01:41:39.000Z</time></trkpt><trkpt lat="45.09854" lon="5.87518"><ele>1631</ele><time>2000-01-01T01:41:49.000Z</time></trkpt><trkpt lat="45.09853" lon="5.87481"><ele>1630</ele><time>2000-01-01T01:41:59.000Z</time></trkpt><trkpt lat="45.09851" lon="5.87434"><ele>1630</ele><time>2000-01-01T01:42:09.000Z</time></trkpt><trkpt lat="45.09829" lon="5.87411"><ele>1630</ele><time>2000-01-01T01:42:19.000Z</time></trkpt><trkpt lat="45.098" lon="5.87378"><ele>1625</ele><time>2000-01-01T01:42:29.000Z</time></trkpt><trkpt lat="45.0978" lon="5.87358"><ele>1625</ele><time>2000-01-01T01:42:39.000Z</time></trkpt><trkpt lat="45.0976" lon="5.87338"><ele>1621</ele><time>2000-01-01T01:42:49.000Z</time></trkpt><trkpt lat="45.09753" lon="5.87303"><ele>1618</ele><time>2000-01-01T01:42:59.000Z</time></trkpt><trkpt lat="45.09716" lon="5.87297"><ele>1619</ele><time>2000-01-01T01:43:09.000Z</time></trkpt><trkpt lat="45.09701" lon="5.87323"><ele>1621</ele><time>2000-01-01T01:43:19.000Z</time></trkpt><trkpt lat="45.09686" lon="5.87351"><ele>1624</ele><time>2000-01-01T01:43:29.000Z</time></trkpt><trkpt lat="45.09664" lon="5.87377"><ele>1624</ele><time>2000-01-01T01:43:39.000Z</time></trkpt><trkpt lat="45.09633" lon="5.87415"><ele>1624</ele><time>2000-01-01T01:43:49.000Z</time></trkpt><trkpt lat="45.09601" lon="5.87434"><ele>1620</ele><time>2000-01-01T01:43:59.000Z</time></trkpt><trkpt lat="45.09571" lon="5.87479"><ele>1619</ele><time>2000-01-01T01:44:09.000Z</time></trkpt><trkpt lat="45.09553" lon="5.87502"><ele>1618</ele><time>2000-01-01T01:44:19.000Z</time></trkpt><trkpt lat="45.09534" lon="5.87524"><ele>1621</ele><time>2000-01-01T01:44:29.000Z</time></trkpt><trkpt lat="45.09509" lon="5.87522"><ele>1622</ele><time>2000-01-01T01:44:39.000Z</time></trkpt><trkpt lat="45.09478" lon="5.8752"><ele>1619</ele><time>2000-01-01T01:44:49.000Z</time></trkpt><trkpt lat="45.09459" lon="5.87561"><ele>1617</ele><time>2000-01-01T01:44:59.000Z</time></trkpt><trkpt lat="45.09459" lon="5.87561"><time>2000-01-01T01:45:09.000Z</time></trkpt><trkpt lat="45.09442" lon="5.87561"><time>2000-01-01T01:45:19.000Z</time></trkpt><trkpt lat="45.09444" lon="5.8761"><ele>1619</ele><time>2000-01-01T01:45:29.000Z</time></trkpt><trkpt lat="45.09427" lon="5.87653"><ele>1621</ele><time>2000-01-01T01:45:39.000Z</time></trkpt><trkpt lat="45.09443" lon="5.87682"><ele>1618</ele><time>2000-01-01T01:45:49.000Z</time></trkpt><trkpt lat="45.09463" lon="5.87717"><ele>1617</ele><time>2000-01-01T01:45:59.000Z</time></trkpt><trkpt lat="45.09482" lon="5.87748"><ele>1617</ele><time>2000-01-01T01:46:09.000Z</time></trkpt><trkpt lat="45.09509" lon="5.87793"><ele>1616</ele><time>2000-01-01T01:46:19.000Z</time></trkpt><trkpt lat="45.09529" lon="5.87814"><ele>1616</ele><time>2000-01-01T01:46:29.000Z</time></trkpt><trkpt lat="45.09554" lon="5.8784"><ele>1616</ele><time>2000-01-01T01:46:39.000Z</time></trkpt><trkpt lat="45.09571" lon="5.87865"><ele>1614</ele><time>2000-01-01T01:46:49.000Z</time></trkpt><trkpt lat="45.09589" lon="5.87891"><ele>1610</ele><time>2000-01-01T01:46:59.000Z</time></trkpt><trkpt lat="45.09573" lon="5.8792"><ele>1606</ele><time>2000-01-01T01:47:09.000Z</time></trkpt><trkpt lat="45.09554" lon="5.87956"><ele>1602</ele><time>2000-01-01T01:47:19.000Z</time></trkpt><trkpt lat="45.0954" lon="5.87983"><ele>1601</ele><time>2000-01-01T01:47:29.000Z</time></trkpt><trkpt lat="45.09525" lon="5.88011"><ele>1601</ele><time>2000-01-01T01:47:39.000Z</time></trkpt><trkpt lat="45.09504" lon="5.88059"><ele>1606</ele><time>2000-01-01T01:47:49.000Z</time></trkpt><trkpt lat="45.09509" lon="5.88105"><ele>1609</ele><time>2000-01-01T01:47:59.000Z</time></trkpt><trkpt lat="45.09514" lon="5.88151"><ele>1609</ele><time>2000-01-01T01:48:09.000Z</time></trkpt><trkpt lat="45.09519" lon="5.88207"><ele>1609</ele><time>2000-01-01T01:48:19.000Z</time></trkpt><trkpt lat="45.09512" lon="5.88247"><ele>1611</ele><time>2000-01-01T01:48:29.000Z</time></trkpt><trkpt lat="45.09535" lon="5.8824"><ele>1612</ele><time>2000-01-01T01:48:39.000Z</time></trkpt><trkpt lat="45.0956" lon="5.88232"><ele>1614</ele><time>2000-01-01T01:48:49.000Z</time></trkpt><trkpt lat="45.09581" lon="5.88258"><ele>1615</ele><time>2000-01-01T01:48:59.000Z</time></trkpt><trkpt lat="45.09607" lon="5.8829"><ele>1620</ele><time>2000-01-01T01:49:09.000Z</time></trkpt><trkpt lat="45.09634" lon="5.88302"><ele>1629</ele><time>2000-01-01T01:49:19.000Z</time></trkpt><trkpt lat="45.09671" lon="5.88318"><ele>1627</ele><time>2000-01-01T01:49:29.000Z</time></trkpt><trkpt lat="45.0971" lon="5.88327"><ele>1625</ele><time>2000-01-01T01:49:39.000Z</time></trkpt><trkpt lat="45.09737" lon="5.88325"><ele>1625</ele><time>2000-01-01T01:49:49.000Z</time></trkpt><trkpt lat="45.09772" lon="5.88323"><ele>1625</ele><time>2000-01-01T01:49:59.000Z</time></trkpt><trkpt lat="45.09794" lon="5.88306"><ele>1625</ele><time>2000-01-01T01:50:09.000Z</time></trkpt><trkpt lat="45.09819" lon="5.88288"><ele>1622</ele><time>2000-01-01T01:50:19.000Z</time></trkpt><trkpt lat="45.0984" lon="5.88263"><ele>1619</ele><time>2000-01-01T01:50:29.000Z</time></trkpt><trkpt lat="45.09868" lon="5.8823"><ele>1615</ele><time>2000-01-01T01:50:39.000Z</time></trkpt><trkpt lat="45.09898" lon="5.88183"><ele>1615</ele><time>2000-01-01T01:50:49.000Z</time></trkpt><trkpt lat="45.09908" lon="5.88142"><ele>1618</ele><time>2000-01-01T01:50:59.000Z</time></trkpt><trkpt lat="45.09925" lon="5.88069"><ele>1619</ele><time>2000-01-01T01:51:09.000Z</time></trkpt><trkpt lat="45.09934" lon="5.88007"><ele>1619</ele><time>2000-01-01T01:51:19.000Z</time></trkpt><trkpt lat="45.09938" lon="5.87965"><ele>1619</ele><time>2000-01-01T01:51:29.000Z</time></trkpt><trkpt lat="45.09943" lon="5.87896"><ele>1624</ele><time>2000-01-01T01:51:39.000Z</time></trkpt><trkpt lat="45.09947" lon="5.87861"><ele>1629</ele><time>2000-01-01T01:51:49.000Z</time></trkpt><trkpt lat="45.09951" lon="5.87825"><ele>1630</ele><time>2000-01-01T01:51:59.000Z</time></trkpt><trkpt lat="45.09942" lon="5.87784"><ele>1633</ele><time>2000-01-01T01:52:09.000Z</time></trkpt></trkseg></trk></gpx>